sensor_id;sensor_type;location;lat;lon;timestamp;P1;durP1;ratioP1;P2;durP2;ratioP2
38262;SDS011;24054;50.128;19.730;2022-12-31T00:01:08;25.33;;;19.17;;
38262;SDS011;24054;50.128;19.730;2022-12-31T00:03:38;25.45;;;18.88;;
38262;SDS011;24054;50.128;19.730;2022-12-31T00:06:13;27.20;;;19.05;;
38262;SDS011;24054;50.128;19.730;2022-12-31T00:08:42;24.65;;;18.42;;
38262;SDS011;24054;50.128;19.730;2022-12-31T00:11:10;27.58;;;18.95;;
38262;SDS011;24054;50.128;19.730;2022-12-31T00:13:38;30.87;;;20.07;;
38262;SDS011;24054;50.128;19.730;2022-12-31T00:18:35;24.50;;;17.98;;
38262;SDS011;24054;50.128;19.730;2022-12-31T00:21:07;26.30;;;18.73;;
38262;SDS011;24054;50.128;19.730;2022-12-31T00:23:35;26.95;;;18.35;;
38262;SDS011;24054;50.128;19.730;2022-12-31T00:26:03;25.02;;;17.98;;
38262;SDS011;24054;50.128;19.730;2022-12-31T00:28:31;24.95;;;17.92;;
38262;SDS011;24054;50.128;19.730;2022-12-31T00:33:30;27.55;;;18.08;;
38262;SDS011;24054;50.128;19.730;2022-12-31T00:36:09;25.80;;;19.33;;
38262;SDS011;24054;50.128;19.730;2022-12-31T00:38:38;23.48;;;17.75;;
38262;SDS011;24054;50.128;19.730;2022-12-31T00:41:06;26.27;;;18.77;;
38262;SDS011;24054;50.128;19.730;2022-12-31T00:43:34;25.52;;;18.35;;
38262;SDS011;24054;50.128;19.730;2022-12-31T00:46:01;22.35;;;17.17;;
38262;SDS011;24054;50.128;19.730;2022-12-31T00:48:29;25.75;;;17.92;;
38262;SDS011;24054;50.128;19.730;2022-12-31T00:50:57;23.77;;;17.33;;
38262;SDS011;24054;50.128;19.730;2022-12-31T00:53:27;24.35;;;18.10;;
38262;SDS011;24054;50.128;19.730;2022-12-31T00:55:58;24.17;;;17.25;;
38262;SDS011;24054;50.128;19.730;2022-12-31T00:58:26;24.33;;;18.38;;
38262;SDS011;24054;50.128;19.730;2022-12-31T01:00:53;23.25;;;17.73;;
38262;SDS011;24054;50.128;19.730;2022-12-31T01:03:20;26.23;;;17.63;;
38262;SDS011;24054;50.128;19.730;2022-12-31T01:05:47;22.67;;;17.05;;
38262;SDS011;24054;50.128;19.730;2022-12-31T01:08:15;24.13;;;17.45;;
38262;SDS011;24054;50.128;19.730;2022-12-31T01:10:48;26.03;;;18.67;;
38262;SDS011;24054;50.128;19.730;2022-12-31T01:13:32;21.77;;;17.40;;
38262;SDS011;24054;50.128;19.730;2022-12-31T01:16:05;24.65;;;18.42;;
38262;SDS011;24054;50.128;19.730;2022-12-31T01:18:33;21.92;;;16.77;;
38262;SDS011;24054;50.128;19.730;2022-12-31T01:21:00;23.08;;;17.23;;
38262;SDS011;24054;50.128;19.730;2022-12-31T01:25:59;24.50;;;18.27;;
38262;SDS011;24054;50.128;19.730;2022-12-31T01:28:27;22.98;;;17.60;;
38262;SDS011;24054;50.128;19.730;2022-12-31T01:30:54;23.70;;;17.50;;
38262;SDS011;24054;50.128;19.730;2022-12-31T01:33:22;26.95;;;18.05;;
38262;SDS011;24054;50.128;19.730;2022-12-31T01:35:49;23.00;;;17.63;;
38262;SDS011;24054;50.128;19.730;2022-12-31T01:38:16;23.75;;;17.70;;
38262;SDS011;24054;50.128;19.730;2022-12-31T01:40:43;22.40;;;16.25;;
38262;SDS011;24054;50.128;19.730;2022-12-31T01:43:14;21.10;;;15.98;;
38262;SDS011;24054;50.128;19.730;2022-12-31T01:45:43;22.92;;;16.85;;
38262;SDS011;24054;50.128;19.730;2022-12-31T01:48:12;22.05;;;16.45;;
38262;SDS011;24054;50.128;19.730;2022-12-31T01:50:45;24.42;;;17.50;;
38262;SDS011;24054;50.128;19.730;2022-12-31T01:53:13;21.70;;;16.63;;
38262;SDS011;24054;50.128;19.730;2022-12-31T01:55:43;22.15;;;16.63;;
38262;SDS011;24054;50.128;19.730;2022-12-31T01:58:15;23.17;;;16.23;;
38262;SDS011;24054;50.128;19.730;2022-12-31T02:00:45;25.35;;;16.92;;
38262;SDS011;24054;50.128;19.730;2022-12-31T02:03:12;23.40;;;17.65;;
38262;SDS011;24054;50.128;19.730;2022-12-31T02:05:42;22.55;;;17.33;;
38262;SDS011;24054;50.128;19.730;2022-12-31T02:08:13;22.85;;;17.05;;
38262;SDS011;24054;50.128;19.730;2022-12-31T02:10:41;23.03;;;17.20;;
38262;SDS011;24054;50.128;19.730;2022-12-31T02:13:08;23.65;;;16.77;;
38262;SDS011;24054;50.128;19.730;2022-12-31T02:15:38;23.50;;;17.30;;
38262;SDS011;24054;50.128;19.730;2022-12-31T02:18:18;23.55;;;17.83;;
38262;SDS011;24054;50.128;19.730;2022-12-31T02:20:54;22.63;;;16.65;;
38262;SDS011;24054;50.128;19.730;2022-12-31T02:23:42;22.70;;;17.23;;
38262;SDS011;24054;50.128;19.730;2022-12-31T02:32:24;23.08;;;16.88;;
38262;SDS011;24054;50.128;19.730;2022-12-31T02:35:03;22.55;;;16.83;;
38262;SDS011;24054;50.128;19.730;2022-12-31T02:37:35;21.33;;;16.63;;
38262;SDS011;24054;50.128;19.730;2022-12-31T02:40:05;25.02;;;17.98;;
38262;SDS011;24054;50.128;19.730;2022-12-31T02:42:38;23.98;;;17.95;;
38262;SDS011;24054;50.128;19.730;2022-12-31T02:45:05;24.45;;;17.88;;
38262;SDS011;24054;50.128;19.730;2022-12-31T02:47:40;22.33;;;16.92;;
38262;SDS011;24054;50.128;19.730;2022-12-31T02:50:19;24.08;;;17.65;;
38262;SDS011;24054;50.128;19.730;2022-12-31T02:52:57;23.33;;;17.95;;
38262;SDS011;24054;50.128;19.730;2022-12-31T02:55:39;22.23;;;17.20;;
38262;SDS011;24054;50.128;19.730;2022-12-31T02:58:11;23.45;;;17.50;;
38262;SDS011;24054;50.128;19.730;2022-12-31T03:00:43;23.38;;;17.42;;
38262;SDS011;24054;50.128;19.730;2022-12-31T03:03:29;23.52;;;17.50;;
38262;SDS011;24054;50.128;19.730;2022-12-31T03:05:57;23.48;;;18.15;;
38262;SDS011;24054;50.128;19.730;2022-12-31T03:08:27;23.45;;;18.25;;
38262;SDS011;24054;50.128;19.730;2022-12-31T03:10:54;23.92;;;18.27;;
38262;SDS011;24054;50.128;19.730;2022-12-31T03:13:21;22.10;;;17.63;;
38262;SDS011;24054;50.128;19.730;2022-12-31T03:15:48;25.77;;;18.13;;
38262;SDS011;24054;50.128;19.730;2022-12-31T03:18:16;21.95;;;16.98;;
38262;SDS011;24054;50.128;19.730;2022-12-31T03:21:11;22.63;;;17.88;;
38262;SDS011;24054;50.128;19.730;2022-12-31T03:23:56;25.33;;;18.90;;
38262;SDS011;24054;50.128;19.730;2022-12-31T03:26:40;24.30;;;19.77;;
38262;SDS011;24054;50.128;19.730;2022-12-31T03:29:07;27.63;;;19.40;;
38262;SDS011;24054;50.128;19.730;2022-12-31T03:31:34;25.38;;;18.42;;
38262;SDS011;24054;50.128;19.730;2022-12-31T03:34:01;26.60;;;19.50;;
38262;SDS011;24054;50.128;19.730;2022-12-31T03:36:30;24.27;;;18.95;;
38262;SDS011;24054;50.128;19.730;2022-12-31T03:38:57;26.90;;;19.73;;
38262;SDS011;24054;50.128;19.730;2022-12-31T03:41:24;27.58;;;20.00;;
38262;SDS011;24054;50.128;19.730;2022-12-31T03:43:51;26.13;;;20.13;;
38262;SDS011;24054;50.128;19.730;2022-12-31T03:46:18;27.77;;;19.95;;
38262;SDS011;24054;50.128;19.730;2022-12-31T03:48:45;24.30;;;19.60;;
38262;SDS011;24054;50.128;19.730;2022-12-31T03:51:12;23.88;;;18.98;;
38262;SDS011;24054;50.128;19.730;2022-12-31T03:53:41;26.85;;;20.52;;
38262;SDS011;24054;50.128;19.730;2022-12-31T03:56:08;26.80;;;20.08;;
38262;SDS011;24054;50.128;19.730;2022-12-31T03:58:34;26.92;;;20.67;;
38262;SDS011;24054;50.128;19.730;2022-12-31T04:01:01;30.85;;;22.58;;
38262;SDS011;24054;50.128;19.730;2022-12-31T04:03:28;28.88;;;21.83;;
38262;SDS011;24054;50.128;19.730;2022-12-31T04:05:55;26.10;;;20.00;;
38262;SDS011;24054;50.128;19.730;2022-12-31T04:08:22;27.52;;;21.85;;
38262;SDS011;24054;50.128;19.730;2022-12-31T04:10:51;29.80;;;21.50;;
38262;SDS011;24054;50.128;19.730;2022-12-31T04:13:18;30.40;;;21.73;;
38262;SDS011;24054;50.128;19.730;2022-12-31T04:15:48;28.73;;;21.52;;
38262;SDS011;24054;50.128;19.730;2022-12-31T04:18:15;29.58;;;21.60;;
38262;SDS011;24054;50.128;19.730;2022-12-31T04:20:42;29.13;;;21.08;;
38262;SDS011;24054;50.128;19.730;2022-12-31T04:23:09;28.98;;;21.58;;
38262;SDS011;24054;50.128;19.730;2022-12-31T04:25:36;27.77;;;20.50;;
38262;SDS011;24054;50.128;19.730;2022-12-31T04:28:04;26.58;;;21.48;;
38262;SDS011;24054;50.128;19.730;2022-12-31T04:30:31;26.58;;;20.75;;
38262;SDS011;24054;50.128;19.730;2022-12-31T04:32:58;28.42;;;21.17;;
38262;SDS011;24054;50.128;19.730;2022-12-31T04:35:25;27.75;;;20.10;;
38262;SDS011;24054;50.128;19.730;2022-12-31T04:37:52;30.08;;;20.23;;
38262;SDS011;24054;50.128;19.730;2022-12-31T04:40:19;29.63;;;20.83;;
38262;SDS011;24054;50.128;19.730;2022-12-31T04:42:46;27.95;;;21.13;;
38262;SDS011;24054;50.128;19.730;2022-12-31T04:45:14;28.08;;;20.25;;
38262;SDS011;24054;50.128;19.730;2022-12-31T04:47:41;25.20;;;19.70;;
38262;SDS011;24054;50.128;19.730;2022-12-31T04:50:08;27.40;;;19.55;;
38262;SDS011;24054;50.128;19.730;2022-12-31T04:52:35;24.80;;;19.23;;
38262;SDS011;24054;50.128;19.730;2022-12-31T04:55:02;25.90;;;19.00;;
38262;SDS011;24054;50.128;19.730;2022-12-31T04:57:30;28.00;;;20.85;;
38262;SDS011;24054;50.128;19.730;2022-12-31T04:59:57;24.75;;;19.17;;
38262;SDS011;24054;50.128;19.730;2022-12-31T05:02:25;24.80;;;18.92;;
38262;SDS011;24054;50.128;19.730;2022-12-31T05:04:52;28.75;;;20.95;;
38262;SDS011;24054;50.128;19.730;2022-12-31T05:07:19;23.75;;;18.60;;
38262;SDS011;24054;50.128;19.730;2022-12-31T05:09:46;24.50;;;18.52;;
38262;SDS011;24054;50.128;19.730;2022-12-31T05:12:13;25.25;;;18.52;;
38262;SDS011;24054;50.128;19.730;2022-12-31T05:14:40;25.63;;;19.45;;
38262;SDS011;24054;50.128;19.730;2022-12-31T05:17:07;23.70;;;18.15;;
38262;SDS011;24054;50.128;19.730;2022-12-31T05:19:35;22.13;;;18.30;;
38262;SDS011;24054;50.128;19.730;2022-12-31T05:22:02;25.80;;;18.58;;
38262;SDS011;24054;50.128;19.730;2022-12-31T05:24:46;25.33;;;18.52;;
38262;SDS011;24054;50.128;19.730;2022-12-31T05:27:16;26.40;;;18.48;;
38262;SDS011;24054;50.128;19.730;2022-12-31T05:29:43;25.20;;;18.58;;
38262;SDS011;24054;50.128;19.730;2022-12-31T05:32:10;23.50;;;17.95;;
38262;SDS011;24054;50.128;19.730;2022-12-31T05:34:38;23.50;;;17.92;;
38262;SDS011;24054;50.128;19.730;2022-12-31T05:37:05;26.38;;;18.48;;
38262;SDS011;24054;50.128;19.730;2022-12-31T05:39:32;25.33;;;17.90;;
38262;SDS011;24054;50.128;19.730;2022-12-31T05:41:59;23.35;;;18.02;;
38262;SDS011;24054;50.128;19.730;2022-12-31T05:44:26;23.35;;;17.63;;
38262;SDS011;24054;50.128;19.730;2022-12-31T05:46:53;23.02;;;17.55;;
38262;SDS011;24054;50.128;19.730;2022-12-31T05:49:19;20.55;;;16.95;;
38262;SDS011;24054;50.128;19.730;2022-12-31T05:51:48;22.45;;;16.75;;
38262;SDS011;24054;50.128;19.730;2022-12-31T05:54:15;23.75;;;18.50;;
38262;SDS011;24054;50.128;19.730;2022-12-31T05:56:42;21.00;;;16.13;;
38262;SDS011;24054;50.128;19.730;2022-12-31T05:59:09;22.20;;;17.25;;
38262;SDS011;24054;50.128;19.730;2022-12-31T06:01:35;20.55;;;15.80;;
38262;SDS011;24054;50.128;19.730;2022-12-31T06:04:02;23.35;;;17.10;;
38262;SDS011;24054;50.128;19.730;2022-12-31T06:06:30;21.55;;;16.65;;
38262;SDS011;24054;50.128;19.730;2022-12-31T06:08:58;22.83;;;16.20;;
38262;SDS011;24054;50.128;19.730;2022-12-31T06:11:25;20.55;;;15.70;;
38262;SDS011;24054;50.128;19.730;2022-12-31T06:13:52;20.88;;;15.63;;
38262;SDS011;24054;50.128;19.730;2022-12-31T06:16:19;19.27;;;14.82;;
38262;SDS011;24054;50.128;19.730;2022-12-31T06:18:46;20.42;;;15.35;;
38262;SDS011;24054;50.128;19.730;2022-12-31T06:21:14;19.80;;;15.00;;
38262;SDS011;24054;50.128;19.730;2022-12-31T06:23:42;20.30;;;14.82;;
38262;SDS011;24054;50.128;19.730;2022-12-31T06:26:10;20.15;;;15.43;;
38262;SDS011;24054;50.128;19.730;2022-12-31T06:28:37;20.25;;;15.35;;
38262;SDS011;24054;50.128;19.730;2022-12-31T06:31:05;20.48;;;14.70;;
38262;SDS011;24054;50.128;19.730;2022-12-31T06:33:34;19.50;;;14.73;;
38262;SDS011;24054;50.128;19.730;2022-12-31T06:36:02;17.45;;;14.05;;
38262;SDS011;24054;50.128;19.730;2022-12-31T06:38:31;17.35;;;13.50;;
38262;SDS011;24054;50.128;19.730;2022-12-31T06:43:29;18.17;;;14.20;;
38262;SDS011;24054;50.128;19.730;2022-12-31T06:45:58;17.33;;;14.07;;
38262;SDS011;24054;50.128;19.730;2022-12-31T06:48:25;18.67;;;14.15;;
38262;SDS011;24054;50.128;19.730;2022-12-31T06:50:52;18.02;;;13.85;;
38262;SDS011;24054;50.128;19.730;2022-12-31T06:53:19;17.10;;;13.00;;
38262;SDS011;24054;50.128;19.730;2022-12-31T06:55:47;17.48;;;13.48;;
38262;SDS011;24054;50.128;19.730;2022-12-31T06:58:15;17.45;;;13.35;;
38262;SDS011;24054;50.128;19.730;2022-12-31T07:00:46;15.88;;;13.25;;
38262;SDS011;24054;50.128;19.730;2022-12-31T07:05:54;16.35;;;13.00;;
38262;SDS011;24054;50.128;19.730;2022-12-31T07:08:30;17.42;;;13.05;;
38262;SDS011;24054;50.128;19.730;2022-12-31T07:11:06;16.90;;;13.10;;
38262;SDS011;24054;50.128;19.730;2022-12-31T07:13:52;15.98;;;12.93;;
38262;SDS011;24054;50.128;19.730;2022-12-31T07:16:28;17.15;;;12.65;;
38262;SDS011;24054;50.128;19.730;2022-12-31T07:19:09;16.40;;;12.23;;
38262;SDS011;24054;50.128;19.730;2022-12-31T07:21:46;15.05;;;12.68;;
38262;SDS011;24054;50.128;19.730;2022-12-31T07:24:15;14.90;;;11.45;;
38262;SDS011;24054;50.128;19.730;2022-12-31T07:26:49;14.63;;;11.50;;
38262;SDS011;24054;50.128;19.730;2022-12-31T07:29:27;14.20;;;11.50;;
38262;SDS011;24054;50.128;19.730;2022-12-31T07:32:07;15.73;;;12.25;;
38262;SDS011;24054;50.128;19.730;2022-12-31T07:34:45;16.67;;;12.18;;
38262;SDS011;24054;50.128;19.730;2022-12-31T07:37:21;14.63;;;11.15;;
38262;SDS011;24054;50.128;19.730;2022-12-31T07:39:58;14.48;;;11.25;;
38262;SDS011;24054;50.128;19.730;2022-12-31T07:42:31;14.40;;;11.00;;
38262;SDS011;24054;50.128;19.730;2022-12-31T07:45:07;14.45;;;11.38;;
38262;SDS011;24054;50.128;19.730;2022-12-31T07:47:41;14.10;;;10.57;;
38262;SDS011;24054;50.128;19.730;2022-12-31T07:50:11;15.80;;;11.57;;
38262;SDS011;24054;50.128;19.730;2022-12-31T07:52:44;14.93;;;11.30;;
38262;SDS011;24054;50.128;19.730;2022-12-31T07:55:11;14.35;;;11.20;;
38262;SDS011;24054;50.128;19.730;2022-12-31T07:57:40;14.63;;;10.82;;
38262;SDS011;24054;50.128;19.730;2022-12-31T08:00:13;14.60;;;10.85;;
38262;SDS011;24054;50.128;19.730;2022-12-31T08:02:55;13.38;;;10.23;;
38262;SDS011;24054;50.128;19.730;2022-12-31T08:05:37;13.23;;;10.27;;
38262;SDS011;24054;50.128;19.730;2022-12-31T08:08:12;13.10;;;10.55;;
38262;SDS011;24054;50.128;19.730;2022-12-31T08:10:53;14.15;;;11.40;;
38262;SDS011;24054;50.128;19.730;2022-12-31T08:13:28;13.48;;;11.15;;
38262;SDS011;24054;50.128;19.730;2022-12-31T08:15:55;13.73;;;10.73;;
38262;SDS011;24054;50.128;19.730;2022-12-31T08:18:24;13.00;;;10.10;;
38262;SDS011;24054;50.128;19.730;2022-12-31T08:20:55;12.45;;;9.63;;
38262;SDS011;24054;50.128;19.730;2022-12-31T08:23:29;13.55;;;10.77;;
38262;SDS011;24054;50.128;19.730;2022-12-31T08:26:07;13.63;;;9.95;;
38262;SDS011;24054;50.128;19.730;2022-12-31T08:28:51;13.65;;;10.48;;
38262;SDS011;24054;50.128;19.730;2022-12-31T08:34:01;12.35;;;9.35;;
38262;SDS011;24054;50.128;19.730;2022-12-31T08:36:36;12.25;;;9.57;;
38262;SDS011;24054;50.128;19.730;2022-12-31T08:39:15;12.55;;;9.10;;
38262;SDS011;24054;50.128;19.730;2022-12-31T08:41:48;12.30;;;9.43;;
38262;SDS011;24054;50.128;19.730;2022-12-31T08:44:19;11.65;;;9.23;;
38262;SDS011;24054;50.128;19.730;2022-12-31T08:46:55;11.75;;;9.70;;
38262;SDS011;24054;50.128;19.730;2022-12-31T08:49:30;10.95;;;9.05;;
38262;SDS011;24054;50.128;19.730;2022-12-31T08:51:59;11.55;;;9.20;;
38262;SDS011;24054;50.128;19.730;2022-12-31T08:54:27;11.80;;;9.15;;
38262;SDS011;24054;50.128;19.730;2022-12-31T08:56:57;11.15;;;8.98;;
38262;SDS011;24054;50.128;19.730;2022-12-31T08:59:32;15.40;;;9.82;;
38262;SDS011;24054;50.128;19.730;2022-12-31T09:05:34;11.13;;;8.43;;
38262;SDS011;24054;50.128;19.730;2022-12-31T09:08:12;15.45;;;10.00;;
38262;SDS011;24054;50.128;19.730;2022-12-31T09:10:55;19.25;;;10.93;;
38262;SDS011;24054;50.128;19.730;2022-12-31T09:13:28;22.40;;;12.25;;
38262;SDS011;24054;50.128;19.730;2022-12-31T09:16:03;24.55;;;12.35;;
38262;SDS011;24054;50.128;19.730;2022-12-31T09:18:38;25.33;;;12.88;;
38262;SDS011;24054;50.128;19.730;2022-12-31T09:21:09;23.17;;;12.40;;
38262;SDS011;24054;50.128;19.730;2022-12-31T09:23:39;24.52;;;13.32;;
38262;SDS011;24054;50.128;19.730;2022-12-31T09:26:08;24.15;;;12.90;;
38262;SDS011;24054;50.128;19.730;2022-12-31T09:28:46;23.10;;;13.35;;
38262;SDS011;24054;50.128;19.730;2022-12-31T09:31:20;22.58;;;12.85;;
38262;SDS011;24054;50.128;19.730;2022-12-31T09:33:58;28.05;;;13.60;;
38262;SDS011;24054;50.128;19.730;2022-12-31T09:36:35;27.73;;;13.90;;
38262;SDS011;24054;50.128;19.730;2022-12-31T09:39:05;28.30;;;13.90;;
38262;SDS011;24054;50.128;19.730;2022-12-31T09:41:57;24.38;;;13.18;;
38262;SDS011;24054;50.128;19.730;2022-12-31T09:44:47;36.00;;;15.70;;
38262;SDS011;24054;50.128;19.730;2022-12-31T09:47:42;49.63;;;19.98;;
38262;SDS011;24054;50.128;19.730;2022-12-31T09:50:33;70.05;;;26.15;;
38262;SDS011;24054;50.128;19.730;2022-12-31T09:53:25;70.60;;;28.75;;
38262;SDS011;24054;50.128;19.730;2022-12-31T09:56:09;63.70;;;28.27;;
38262;SDS011;24054;50.128;19.730;2022-12-31T09:58:43;65.80;;;26.83;;
38262;SDS011;24054;50.128;19.730;2022-12-31T10:01:26;71.63;;;27.52;;
38262;SDS011;24054;50.128;19.730;2022-12-31T10:07:11;69.65;;;27.08;;
38262;SDS011;24054;50.128;19.730;2022-12-31T10:09:53;69.78;;;27.42;;
38262;SDS011;24054;50.128;19.730;2022-12-31T10:15:35;67.43;;;26.60;;
38262;SDS011;24054;50.128;19.730;2022-12-31T10:21:31;65.72;;;26.30;;
38262;SDS011;24054;50.128;19.730;2022-12-31T10:24:13;63.17;;;25.88;;
38262;SDS011;24054;50.128;19.730;2022-12-31T10:27:08;53.92;;;24.88;;
38262;SDS011;24054;50.128;19.730;2022-12-31T10:29:45;59.25;;;24.73;;
38262;SDS011;24054;50.128;19.730;2022-12-31T10:32:18;62.33;;;23.45;;
38262;SDS011;24054;50.128;19.730;2022-12-31T10:34:51;53.78;;;22.23;;
38262;SDS011;24054;50.128;19.730;2022-12-31T10:37:22;53.38;;;23.30;;
38262;SDS011;24054;50.128;19.730;2022-12-31T10:39:57;61.72;;;24.02;;
38262;SDS011;24054;50.128;19.730;2022-12-31T10:42:50;56.17;;;24.40;;
38262;SDS011;24054;50.128;19.730;2022-12-31T11:01:25;54.45;;;21.48;;
38262;SDS011;24054;50.128;19.730;2022-12-31T11:07:27;44.72;;;19.75;;
38262;SDS011;24054;50.128;19.730;2022-12-31T11:13:41;48.08;;;20.55;;
38262;SDS011;24054;50.128;19.730;2022-12-31T11:16:45;41.42;;;19.58;;
38262;SDS011;24054;50.128;19.730;2022-12-31T11:19:25;43.55;;;19.65;;
38262;SDS011;24054;50.128;19.730;2022-12-31T11:22:03;42.65;;;19.90;;
38262;SDS011;24054;50.128;19.730;2022-12-31T11:24:46;44.40;;;21.05;;
38262;SDS011;24054;50.128;19.730;2022-12-31T11:27:36;45.08;;;19.13;;
38262;SDS011;24054;50.128;19.730;2022-12-31T11:30:18;44.58;;;19.70;;
38262;SDS011;24054;50.128;19.730;2022-12-31T11:32:54;38.83;;;17.40;;
38262;SDS011;24054;50.128;19.730;2022-12-31T11:35:36;41.13;;;18.52;;
38262;SDS011;24054;50.128;19.730;2022-12-31T11:38:15;37.33;;;18.73;;
38262;SDS011;24054;50.128;19.730;2022-12-31T11:40:51;40.03;;;19.13;;
38262;SDS011;24054;50.128;19.730;2022-12-31T11:43:29;34.63;;;17.45;;
38262;SDS011;24054;50.128;19.730;2022-12-31T11:46:06;36.50;;;15.88;;
38262;SDS011;24054;50.128;19.730;2022-12-31T11:48:59;36.22;;;16.98;;
38262;SDS011;24054;50.128;19.730;2022-12-31T11:51:49;35.20;;;16.38;;
38262;SDS011;24054;50.128;19.730;2022-12-31T11:57:43;36.00;;;16.10;;
38262;SDS011;24054;50.128;19.730;2022-12-31T12:00:15;34.30;;;16.63;;
38262;SDS011;24054;50.128;19.730;2022-12-31T12:02:46;32.58;;;16.80;;
38262;SDS011;24054;50.128;19.730;2022-12-31T12:05:18;38.03;;;17.02;;
38262;SDS011;24054;50.128;19.730;2022-12-31T12:07:50;38.38;;;16.63;;
38262;SDS011;24054;50.128;19.730;2022-12-31T12:10:22;32.05;;;14.52;;
38262;SDS011;24054;50.128;19.730;2022-12-31T12:12:50;34.60;;;17.27;;
38262;SDS011;24054;50.128;19.730;2022-12-31T12:15:21;36.60;;;16.45;;
38262;SDS011;24054;50.128;19.730;2022-12-31T12:17:51;34.33;;;15.57;;
38262;SDS011;24054;50.128;19.730;2022-12-31T12:20:22;30.05;;;15.15;;
38262;SDS011;24054;50.128;19.730;2022-12-31T12:22:55;30.45;;;14.75;;
38262;SDS011;24054;50.128;19.730;2022-12-31T12:25:24;28.30;;;14.52;;
38262;SDS011;24054;50.128;19.730;2022-12-31T12:27:53;28.25;;;15.00;;
38262;SDS011;24054;50.128;19.730;2022-12-31T12:30:21;31.88;;;15.68;;
38262;SDS011;24054;50.128;19.730;2022-12-31T12:32:52;27.35;;;14.35;;
38262;SDS011;24054;50.128;19.730;2022-12-31T12:35:26;32.30;;;14.93;;
38262;SDS011;24054;50.128;19.730;2022-12-31T12:37:59;33.50;;;13.00;;
38262;SDS011;24054;50.128;19.730;2022-12-31T12:40:27;26.60;;;13.88;;
38262;SDS011;24054;50.128;19.730;2022-12-31T12:42:55;29.25;;;13.95;;
38262;SDS011;24054;50.128;19.730;2022-12-31T12:45:23;27.40;;;13.88;;
38262;SDS011;24054;50.128;19.730;2022-12-31T12:47:53;24.95;;;13.52;;
38262;SDS011;24054;50.128;19.730;2022-12-31T12:50:24;25.90;;;13.35;;
38262;SDS011;24054;50.128;19.730;2022-12-31T12:53:07;26.05;;;13.35;;
38262;SDS011;24054;50.128;19.730;2022-12-31T12:55:48;24.30;;;13.00;;
38262;SDS011;24054;50.128;19.730;2022-12-31T12:58:26;23.75;;;12.43;;
38262;SDS011;24054;50.128;19.730;2022-12-31T13:01:03;17.95;;;9.45;;
38262;SDS011;24054;50.128;19.730;2022-12-31T13:06:35;19.30;;;10.00;;
38262;SDS011;24054;50.128;19.730;2022-12-31T13:09:13;12.38;;;7.38;;
38262;SDS011;24054;50.128;19.730;2022-12-31T13:11:54;16.02;;;8.23;;
38262;SDS011;24054;50.128;19.730;2022-12-31T13:14:31;16.85;;;8.20;;
38262;SDS011;24054;50.128;19.730;2022-12-31T13:17:07;15.90;;;8.02;;
38262;SDS011;24054;50.128;19.730;2022-12-31T13:19:47;17.58;;;8.20;;
38262;SDS011;24054;50.128;19.730;2022-12-31T13:22:25;15.43;;;8.32;;
38262;SDS011;24054;50.128;19.730;2022-12-31T13:24:59;18.25;;;9.07;;
38262;SDS011;24054;50.128;19.730;2022-12-31T13:27:33;15.95;;;9.00;;
38262;SDS011;24054;50.128;19.730;2022-12-31T13:30:05;15.82;;;8.60;;
38262;SDS011;24054;50.128;19.730;2022-12-31T13:32:41;16.70;;;8.38;;
38262;SDS011;24054;50.128;19.730;2022-12-31T13:35:17;17.85;;;8.18;;
38262;SDS011;24054;50.128;19.730;2022-12-31T13:37:50;19.35;;;7.47;;
38262;SDS011;24054;50.128;19.730;2022-12-31T13:40:23;13.50;;;7.85;;
38262;SDS011;24054;50.128;19.730;2022-12-31T13:42:53;13.82;;;8.00;;
38262;SDS011;24054;50.128;19.730;2022-12-31T13:45:26;15.15;;;7.55;;
38262;SDS011;24054;50.128;19.730;2022-12-31T13:47:58;15.55;;;7.70;;
38262;SDS011;24054;50.128;19.730;2022-12-31T13:50:31;18.15;;;7.72;;
38262;SDS011;24054;50.128;19.730;2022-12-31T13:53:03;17.05;;;8.50;;
38262;SDS011;24054;50.128;19.730;2022-12-31T13:55:40;11.93;;;6.78;;
38262;SDS011;24054;50.128;19.730;2022-12-31T13:58:12;16.05;;;7.93;;
38262;SDS011;24054;50.128;19.730;2022-12-31T14:00:46;15.32;;;7.78;;
38262;SDS011;24054;50.128;19.730;2022-12-31T14:03:21;14.18;;;8.02;;
38262;SDS011;24054;50.128;19.730;2022-12-31T14:05:59;14.10;;;7.03;;
38262;SDS011;24054;50.128;19.730;2022-12-31T14:08:32;11.38;;;6.90;;
38262;SDS011;24054;50.128;19.730;2022-12-31T14:13:33;15.52;;;7.05;;
38262;SDS011;24054;50.128;19.730;2022-12-31T14:16:11;12.02;;;5.80;;
38262;SDS011;24054;50.128;19.730;2022-12-31T14:18:45;14.23;;;6.47;;
38262;SDS011;24054;50.128;19.730;2022-12-31T14:21:21;9.02;;;5.43;;
38262;SDS011;24054;50.128;19.730;2022-12-31T14:23:55;11.57;;;6.13;;
38262;SDS011;24054;50.128;19.730;2022-12-31T14:26:30;9.88;;;5.75;;
38262;SDS011;24054;50.128;19.730;2022-12-31T14:29:15;9.13;;;5.90;;
38262;SDS011;24054;50.128;19.730;2022-12-31T14:32:00;9.13;;;5.70;;
38262;SDS011;24054;50.128;19.730;2022-12-31T14:34:50;12.43;;;6.32;;
38262;SDS011;24054;50.128;19.730;2022-12-31T14:37:27;9.65;;;5.60;;
38262;SDS011;24054;50.128;19.730;2022-12-31T14:40:03;11.43;;;6.50;;
38262;SDS011;24054;50.128;19.730;2022-12-31T14:42:42;11.32;;;5.60;;
38262;SDS011;24054;50.128;19.730;2022-12-31T14:45:20;12.98;;;5.82;;
38262;SDS011;24054;50.128;19.730;2022-12-31T14:47:54;9.65;;;4.90;;
38262;SDS011;24054;50.128;19.730;2022-12-31T14:50:27;9.00;;;5.10;;
38262;SDS011;24054;50.128;19.730;2022-12-31T14:53:05;9.18;;;5.43;;
38262;SDS011;24054;50.128;19.730;2022-12-31T14:55:37;10.10;;;4.90;;
38262;SDS011;24054;50.128;19.730;2022-12-31T14:58:18;7.05;;;4.32;;
38262;SDS011;24054;50.128;19.730;2022-12-31T15:00:51;12.32;;;5.50;;
38262;SDS011;24054;50.128;19.730;2022-12-31T15:03:23;9.65;;;5.20;;
38262;SDS011;24054;50.128;19.730;2022-12-31T15:08:38;9.93;;;4.63;;
38262;SDS011;24054;50.128;19.730;2022-12-31T15:11:25;14.68;;;5.75;;
38262;SDS011;24054;50.128;19.730;2022-12-31T15:14:29;9.07;;;4.65;;
38262;SDS011;24054;50.128;19.730;2022-12-31T15:17:19;11.57;;;4.90;;
38262;SDS011;24054;50.128;19.730;2022-12-31T15:22:59;7.60;;;4.50;;
38262;SDS011;24054;50.128;19.730;2022-12-31T15:25:27;9.60;;;4.85;;
38262;SDS011;24054;50.128;19.730;2022-12-31T15:27:58;8.20;;;4.55;;
38262;SDS011;24054;50.128;19.730;2022-12-31T15:30:36;8.20;;;4.25;;
38262;SDS011;24054;50.128;19.730;2022-12-31T15:33:07;10.10;;;4.38;;
38262;SDS011;24054;50.128;19.730;2022-12-31T15:35:44;9.88;;;4.47;;
38262;SDS011;24054;50.128;19.730;2022-12-31T15:41:10;9.48;;;4.55;;
38262;SDS011;24054;50.128;19.730;2022-12-31T15:43:44;6.63;;;4.18;;
38262;SDS011;24054;50.128;19.730;2022-12-31T15:46:16;7.88;;;4.28;;
38262;SDS011;24054;50.128;19.730;2022-12-31T15:48:47;10.68;;;4.78;;
38262;SDS011;24054;50.128;19.730;2022-12-31T15:51:18;11.57;;;5.28;;
38262;SDS011;24054;50.128;19.730;2022-12-31T15:53:49;10.30;;;4.40;;
38262;SDS011;24054;50.128;19.730;2022-12-31T15:56:20;8.10;;;4.90;;
38262;SDS011;24054;50.128;19.730;2022-12-31T15:58:55;8.40;;;4.85;;
38262;SDS011;24054;50.128;19.730;2022-12-31T16:01:26;7.85;;;4.40;;